createdAt,value
2019-02-07T00:02:19.106Z,66.94
2019-02-07T00:04:47.479Z,66.94
2019-02-07T00:07:15.863Z,67.10
2019-02-07T00:09:44.386Z,66.67
2019-02-07T00:12:13.339Z,66.85
2019-02-07T00:14:41.726Z,67.24
2019-02-07T00:17:10.336Z,67.30
2019-02-07T00:19:38.781Z,66.98
2019-02-07T00:22:07.845Z,66.47
2019-02-07T00:24:42.935Z,65.86
2019-02-07T00:27:07.549Z,65.33
2019-02-07T00:29:35.988Z,65.73
2019-02-07T00:32:04.435Z,65.83
2019-02-07T00:34:32.838Z,65.83
2019-02-07T00:37:01.586Z,66.90
2019-02-07T00:39:30.581Z,66.58
2019-02-07T00:41:58.935Z,65.60
2019-02-07T00:44:27.269Z,66.17
2019-02-07T00:46:55.614Z,66.07
2019-02-07T00:49:23.974Z,66.30
2019-02-07T00:51:52.461Z,65.93
2019-02-07T00:54:20.832Z,66.11
2019-02-07T00:56:49.207Z,66.19
2019-02-07T00:59:17.575Z,65.85
2019-02-07T01:01:45.956Z,65.49
2019-02-07T01:04:14.374Z,66.41
2019-02-07T01:06:42.719Z,65.86
2019-02-07T01:09:12.311Z,66.07
2019-02-07T01:11:40.765Z,67.17
2019-02-07T01:14:09.564Z,67.54
2019-02-07T01:16:37.962Z,68.01
2019-02-07T01:19:06.377Z,68.04
2019-02-07T01:21:35.690Z,68.26
2019-02-07T01:24:04.398Z,68.26
2019-02-07T01:26:32.733Z,68.20
2019-02-07T01:29:01.091Z,68.06
2019-02-07T01:31:29.422Z,67.81
2019-02-07T01:33:57.844Z,68.31
2019-02-07T01:36:26.207Z,68.01
2019-02-07T01:38:54.571Z,68.46
2019-02-07T01:41:23.040Z,68.29
2019-02-07T01:43:51.544Z,68.47
2019-02-07T01:46:19.883Z,68.46
2019-02-07T01:48:48.257Z,68.63
2019-02-07T01:51:16.629Z,68.72
2019-02-07T01:53:44.976Z,68.64
2019-02-07T01:56:13.405Z,68.59
2019-02-07T01:58:41.735Z,68.25
2019-02-07T02:01:10.672Z,68.59
2019-02-07T02:03:39.074Z,68.67
2019-02-07T02:06:07.544Z,68.70
2019-02-07T02:08:35.928Z,68.68
2019-02-07T02:11:04.458Z,68.72
2019-02-07T02:13:33.418Z,68.14
2019-02-07T02:16:01.834Z,67.99
2019-02-07T02:18:30.288Z,67.92
2019-02-07T02:20:58.656Z,67.27
2019-02-07T02:23:26.990Z,67.00
2019-02-07T02:25:55.398Z,67.65
2019-02-07T02:28:24.429Z,67.52
2019-02-07T02:30:52.864Z,66.65
2019-02-07T02:33:21.358Z,67.36
2019-02-07T02:35:50.224Z,67.27
2019-02-07T02:38:19.089Z,67.78
2019-02-07T02:40:47.452Z,68.00
2019-02-07T02:43:15.861Z,68.37
2019-02-07T02:45:44.484Z,68.39
2019-02-07T02:48:13.070Z,68.43
2019-02-07T02:50:41.401Z,68.06
2019-02-07T02:53:10.178Z,68.72
2019-02-07T02:55:40.525Z,68.31
2019-02-07T02:58:09.196Z,68.13
2019-02-07T03:00:38.365Z,68.50
2019-02-07T03:03:09.705Z,67.92
2019-02-07T03:05:41.878Z,67.86
2019-02-07T03:08:13.073Z,67.89
2019-02-07T03:10:45.153Z,67.40
2019-02-07T03:13:15.131Z,67.52
2019-02-07T03:15:49.697Z,67.95
2019-02-07T03:18:18.615Z,68.43
2019-02-07T03:20:49.597Z,68.20
2019-02-07T03:23:20.561Z,68.69
2019-02-07T03:25:50.285Z,68.04
2019-02-07T03:28:22.254Z,67.58
2019-02-07T03:30:53.255Z,67.44
2019-02-07T03:33:24.415Z,67.70
2019-02-07T03:35:54.151Z,67.12
2019-02-07T03:38:25.348Z,67.21
2019-02-07T03:40:56.518Z,66.29
2019-02-07T03:43:27.261Z,66.38
2019-02-07T03:46:02.864Z,65.50
2019-02-07T03:48:33.212Z,66.43
2019-02-07T03:51:04.711Z,65.63
2019-02-07T03:53:36.822Z,65.62
2019-02-07T03:56:07.072Z,64.98
2019-02-07T03:58:38.189Z,65.24
2019-02-07T04:01:07.326Z,64.77
2019-02-07T04:03:39.307Z,65.44
2019-02-07T04:06:11.850Z,64.27
2019-02-07T04:08:42.687Z,63.86
2019-02-07T04:11:14.081Z,64.96
2019-02-07T04:13:44.244Z,65.09
2019-02-07T04:16:15.384Z,66.11
2019-02-07T04:18:47.110Z,67.53
2019-02-07T04:21:20.171Z,67.41
2019-02-07T04:23:52.076Z,67.50
2019-02-07T04:26:24.115Z,67.52
2019-02-07T04:28:56.243Z,67.26
2019-02-07T04:31:26.705Z,66.77
2019-02-07T04:33:57.001Z,66.62
2019-02-07T04:36:25.333Z,66.09
2019-02-07T04:38:56.478Z,66.04
2019-02-07T04:41:28.446Z,65.99
2019-02-07T04:43:58.058Z,66.73
2019-02-07T04:46:28.787Z,65.06
2019-02-07T04:49:00.828Z,64.44
2019-02-07T04:51:31.816Z,64.73
2019-02-07T04:54:02.963Z,65.28
2019-02-07T04:56:32.004Z,64.17
2019-02-07T04:59:03.117Z,63.77
2019-02-07T05:01:34.291Z,64.85
2019-02-07T05:04:05.290Z,64.40
2019-02-07T05:06:36.212Z,64.05
2019-02-07T05:09:09.206Z,64.67
2019-02-07T05:11:40.196Z,64.15
2019-02-07T05:14:09.703Z,64.75
2019-02-07T05:16:43.657Z,64.03
2019-02-07T05:19:15.327Z,64.12
2019-02-07T05:21:47.418Z,63.66
2019-02-07T05:24:19.469Z,63.69
2019-02-07T05:26:52.440Z,64.09
2019-02-07T05:29:22.866Z,64.04
2019-02-07T05:31:55.897Z,63.90
2019-02-07T05:34:26.607Z,64.08
2019-02-07T05:36:57.714Z,64.42
2019-02-07T05:39:27.448Z,64.22
2019-02-07T05:41:59.585Z,64.43
2019-02-07T05:44:30.020Z,63.80
2019-02-07T05:47:03.135Z,63.72
2019-02-07T05:49:34.073Z,63.27
2019-02-07T05:52:06.032Z,63.95
2019-02-07T05:54:38.152Z,63.04
2019-02-07T05:57:10.139Z,62.80
2019-02-07T05:59:40.928Z,63.09
2019-02-07T06:02:11.181Z,63.30
2019-02-07T06:04:40.413Z,63.84
2019-02-07T06:07:11.151Z,64.55
2019-02-07T06:09:40.943Z,64.19
2019-02-07T06:12:12.105Z,64.08
2019-02-07T06:14:40.772Z,63.70
2019-02-07T06:17:11.635Z,63.95
2019-02-07T06:19:42.713Z,64.32
2019-02-07T06:22:12.207Z,64.64
2019-02-07T06:24:42.494Z,64.44
2019-02-07T06:27:13.518Z,63.90
2019-02-07T06:29:45.523Z,64.21
2019-02-07T06:32:16.145Z,64.36
2019-02-07T06:34:48.023Z,65.12
2019-02-07T06:37:20.150Z,65.41
2019-02-07T06:39:50.445Z,64.55
2019-02-07T06:42:21.652Z,64.49
2019-02-07T06:44:54.791Z,63.49
2019-02-07T06:47:25.710Z,63.96
2019-02-07T06:49:57.724Z,63.55
2019-02-07T06:52:28.726Z,63.40
2019-02-07T06:54:58.839Z,63.61
2019-02-07T06:57:30.026Z,62.87
2019-02-07T06:59:58.706Z,62.54
2019-02-07T07:02:29.329Z,63.21
2019-02-07T07:04:59.606Z,63.04
2019-02-07T07:07:29.651Z,64.35
2019-02-07T07:09:59.173Z,64.10
2019-02-07T07:12:27.858Z,63.39
2019-02-07T07:14:59.949Z,63.04
2019-02-07T07:17:30.993Z,62.26
2019-02-07T07:20:00.998Z,62.84
2019-02-07T07:22:31.853Z,61.85
2019-02-07T07:25:02.654Z,61.84
2019-02-07T07:27:32.444Z,62.89
2019-02-07T07:30:03.556Z,63.62
2019-02-07T07:32:34.682Z,64.25
2019-02-07T07:35:07.464Z,64.70
2019-02-07T07:37:39.062Z,65.04
2019-02-07T07:40:12.341Z,65.23
2019-02-07T07:42:44.227Z,64.70
2019-02-07T07:45:18.207Z,64.32
2019-02-07T07:47:50.253Z,63.41
2019-02-07T07:53:12.386Z,64.70
2019-02-07T07:55:42.555Z,64.13
2019-02-07T08:01:19.161Z,64.66
2019-02-07T08:03:51.124Z,64.71
2019-02-07T08:06:21.406Z,64.76
2019-02-07T08:08:51.191Z,63.80
2019-02-07T08:11:21.574Z,64.27
2019-02-07T08:13:50.674Z,64.81
2019-02-07T08:16:20.314Z,64.38
2019-02-07T08:18:50.915Z,63.59
2019-02-07T08:21:22.951Z,63.70
2019-02-07T08:23:53.657Z,65.16
2019-02-07T08:26:24.741Z,65.12
2019-02-07T08:28:53.478Z,65.57
2019-02-07T08:31:25.592Z,64.27
2019-02-07T08:33:56.615Z,64.19
2019-02-07T08:36:31.631Z,64.60
2019-02-07T08:39:03.482Z,65.76
2019-02-07T08:44:32.213Z,64.14
2019-02-07T08:47:14.931Z,65.16
2019-02-07T08:49:45.659Z,64.65
2019-02-07T08:52:17.744Z,64.66
2019-02-07T08:54:48.614Z,65.72
2019-02-07T08:57:19.640Z,65.80
2019-02-07T08:59:51.025Z,66.19
2019-02-07T09:02:22.005Z,64.95
2019-02-07T09:04:53.056Z,65.09
2019-02-07T09:07:23.395Z,65.46
2019-02-07T09:09:56.486Z,65.77
2019-02-07T09:12:27.893Z,65.21
2019-02-07T09:15:13.101Z,66.05
2019-02-07T09:17:43.842Z,66.86
2019-02-07T09:20:17.502Z,67.47
2019-02-07T09:22:52.545Z,68.99
2019-02-07T09:25:26.413Z,65.97
2019-02-07T09:27:57.551Z,66.38
2019-02-07T09:30:28.604Z,66.21
2019-02-07T09:32:57.826Z,66.17
2019-02-07T09:35:28.538Z,65.84
2019-02-07T09:38:01.522Z,66.48
2019-02-07T09:40:31.921Z,66.47
2019-02-07T09:43:02.257Z,66.68
2019-02-07T09:45:31.869Z,67.47
2019-02-07T09:48:04.205Z,68.02
2019-02-07T09:50:35.205Z,68.48
2019-02-07T09:53:05.563Z,67.42
2019-02-07T09:55:36.842Z,67.86
2019-02-07T09:58:07.443Z,67.52
2019-02-07T10:00:39.719Z,67.61
2019-02-07T10:03:08.402Z,68.12
2019-02-07T10:05:39.392Z,69.65
2019-02-07T10:08:10.575Z,68.80
2019-02-07T10:10:42.743Z,69.45
2019-02-07T10:13:12.491Z,69.49
2019-02-07T10:15:43.288Z,69.38
2019-02-07T10:18:16.372Z,69.25
2019-02-07T10:20:47.606Z,69.03
2019-02-07T10:23:18.035Z,69.04
2019-02-07T10:25:51.266Z,69.72
2019-02-07T10:28:22.343Z,69.57
2019-02-07T10:30:55.464Z,69.73
2019-02-07T10:33:25.159Z,70.14
2019-02-07T10:35:56.269Z,69.18
2019-02-07T10:38:25.585Z,70.07
2019-02-07T10:40:54.345Z,69.76
2019-02-07T10:43:25.369Z,70.84
2019-02-07T10:45:58.461Z,71.60
2019-02-07T10:48:29.283Z,72.06
2019-02-07T10:51:03.473Z,71.78
2019-02-07T10:53:34.670Z,70.84
2019-02-07T10:56:05.981Z,72.00
2019-02-07T10:58:36.285Z,71.99
2019-02-07T11:01:08.717Z,71.46
2019-02-07T11:03:40.731Z,70.80
2019-02-07T11:06:11.350Z,70.81
2019-02-07T11:08:42.579Z,71.06
2019-02-07T11:11:14.617Z,70.24
2019-02-07T11:13:46.306Z,71.79
2019-02-07T11:16:17.405Z,71.62
2019-02-07T11:18:55.320Z,71.49
2019-02-07T11:21:21.758Z,70.81
2019-02-07T11:23:53.794Z,70.37
2019-02-07T11:26:25.789Z,70.69
2019-02-07T11:28:58.112Z,71.34
2019-02-07T11:31:28.923Z,70.72
2019-02-07T11:34:00.089Z,71.04
2019-02-07T11:36:31.792Z,70.05
2019-02-07T11:39:03.953Z,69.64
2019-02-07T11:41:34.420Z,69.44
2019-02-07T11:44:06.370Z,70.20
2019-02-07T11:46:38.418Z,70.06
2019-02-07T11:49:07.984Z,69.41
2019-02-07T11:51:39.883Z,70.22
2019-02-07T11:54:12.369Z,69.69
2019-02-07T11:56:43.553Z,70.61
2019-02-07T11:59:14.625Z,70.86
2019-02-07T12:01:45.758Z,71.10
2019-02-07T12:04:16.627Z,70.36
2019-02-07T12:06:49.118Z,70.04
2019-02-07T12:09:21.104Z,70.84
2019-02-07T12:11:53.121Z,71.49
2019-02-07T12:14:22.310Z,71.22
2019-02-07T12:16:54.271Z,70.44
2019-02-07T12:19:24.285Z,71.19
2019-02-07T12:21:55.838Z,70.66
2019-02-07T12:24:28.000Z,70.78
2019-02-07T12:26:59.181Z,71.32
2019-02-07T12:29:31.114Z,70.11
2019-02-07T12:32:02.241Z,71.00
2019-02-07T12:34:35.136Z,71.09
2019-02-07T12:37:04.540Z,70.56
2019-02-07T12:39:36.373Z,71.18
2019-02-07T12:42:07.350Z,71.74
2019-02-07T12:44:39.203Z,71.50
2019-02-07T12:47:12.106Z,71.69
2019-02-07T12:49:43.285Z,71.86
2019-02-07T12:52:14.589Z,71.90
2019-02-07T12:54:45.662Z,72.44
2019-02-07T12:57:14.636Z,72.57
2019-02-07T12:59:46.803Z,72.37
2019-02-07T13:02:17.559Z,71.54
2019-02-07T13:04:52.159Z,71.71
2019-02-07T13:07:24.343Z,71.63
2019-02-07T13:09:55.642Z,72.33
2019-02-07T13:12:28.623Z,72.35
2019-02-07T13:14:59.793Z,72.72
2019-02-07T13:17:30.868Z,72.60
2019-02-07T13:20:03.100Z,72.09
2019-02-07T13:22:35.372Z,71.54
2019-02-07T13:25:08.462Z,70.94
2019-02-07T13:27:40.680Z,70.67
2019-02-07T13:30:15.600Z,71.21
2019-02-07T13:32:47.838Z,70.59
2019-02-07T13:35:18.725Z,71.71
2019-02-07T13:37:54.782Z,70.76
2019-02-07T13:40:24.709Z,71.26
2019-02-07T13:42:56.658Z,71.57
2019-02-07T13:45:29.293Z,71.94
2019-02-07T13:48:00.336Z,71.90
2019-02-07T13:50:32.581Z,71.78
2019-02-07T13:53:04.933Z,71.35
2019-02-07T13:55:37.470Z,71.39
2019-02-07T13:58:10.808Z,70.88
2019-02-07T14:00:42.177Z,70.47
2019-02-07T14:03:13.958Z,71.41
2019-02-07T14:05:45.110Z,71.06
2019-02-07T14:08:15.340Z,71.09
2019-02-07T14:10:44.497Z,70.77
2019-02-07T14:13:16.772Z,71.28
2019-02-07T14:15:48.813Z,71.04
2019-02-07T14:18:20.957Z,71.51
2019-02-07T14:20:53.073Z,71.00
2019-02-07T14:23:25.069Z,70.36
2019-02-07T14:25:53.781Z,70.25
2019-02-07T14:28:24.164Z,70.53
2019-02-07T14:30:52.808Z,70.37
2019-02-07T14:33:23.822Z,69.86
2019-02-07T14:35:54.850Z,69.56
2019-02-07T14:38:26.881Z,69.50
2019-02-07T14:40:58.883Z,70.67
2019-02-07T14:43:29.842Z,70.72
2019-02-07T14:46:00.503Z,70.40
2019-02-07T14:48:29.173Z,70.01
2019-02-07T14:50:57.572Z,70.28
2019-02-07T14:53:25.956Z,71.00
2019-02-07T14:55:54.392Z,70.81
2019-02-07T14:58:22.741Z,70.68
2019-02-07T15:00:51.078Z,70.90
2019-02-07T15:03:19.405Z,71.37
2019-02-07T15:05:48.094Z,71.22
2019-02-07T15:08:16.534Z,71.44
2019-02-07T15:10:45.003Z,71.31
2019-02-07T15:13:13.770Z,71.55
2019-02-07T15:15:42.091Z,70.74
2019-02-07T15:18:10.598Z,70.93
2019-02-07T15:20:39.378Z,71.48
2019-02-07T15:23:08.234Z,72.27
2019-02-07T15:25:36.616Z,71.99
2019-02-07T15:28:05.253Z,71.67
2019-02-07T15:30:33.674Z,71.77
2019-02-07T15:33:01.997Z,72.19
2019-02-07T15:35:32.538Z,72.20
2019-02-07T15:38:01.110Z,72.56
2019-02-07T15:40:29.770Z,72.39
2019-02-07T15:42:58.443Z,72.57
2019-02-07T15:45:27.332Z,72.67
2019-02-07T15:47:55.711Z,72.97
2019-02-07T15:50:37.353Z,72.88
2019-02-07T15:52:58.392Z,73.03
2019-02-07T15:55:26.942Z,73.48
2019-02-07T15:57:55.566Z,73.03
2019-02-07T16:00:28.146Z,73.32
2019-02-07T16:02:59.606Z,72.87
2019-02-07T16:05:28.059Z,73.33
2019-02-07T16:07:56.445Z,73.37
2019-02-07T16:10:24.774Z,73.30
2019-02-07T16:12:53.164Z,73.47
2019-02-07T16:15:21.675Z,73.60
2019-02-07T16:17:50.066Z,73.58
2019-02-07T16:20:20.358Z,74.37
2019-02-07T16:22:48.790Z,74.52
2019-02-07T16:25:17.441Z,75.18
2019-02-07T16:27:45.838Z,74.97
2019-02-07T16:30:17.015Z,75.27
2019-02-07T16:32:45.461Z,75.55
2019-02-07T16:35:16.518Z,76.16
2019-02-07T16:37:45.040Z,76.42
2019-02-07T16:40:15.510Z,75.96
2019-02-07T16:42:44.739Z,75.92
2019-02-07T16:45:18.300Z,76.72
2019-02-07T16:47:46.646Z,76.60
2019-02-07T16:50:17.862Z,76.76
2019-02-07T16:52:46.276Z,76.81
2019-02-07T16:55:14.638Z,76.49
2019-02-07T16:57:43.157Z,76.82
2019-02-07T17:00:15.480Z,76.86
2019-02-07T17:02:44.193Z,77.00
2019-02-07T17:05:13.774Z,77.20
2019-02-07T17:07:42.271Z,77.95
2019-02-07T17:10:14.863Z,77.95
2019-02-07T17:12:43.430Z,77.97
2019-02-07T17:15:16.910Z,78.26
2019-02-07T17:17:45.523Z,78.12
2019-02-07T17:20:16.765Z,77.92
2019-02-07T17:22:47.489Z,78.60
2019-02-07T17:25:15.915Z,78.40
2019-02-07T17:27:44.419Z,78.55
2019-02-07T17:30:17.597Z,77.77
2019-02-07T17:32:46.329Z,77.56
2019-02-07T17:35:15.867Z,77.76
2019-02-07T17:37:44.507Z,78.15
2019-02-07T17:40:17.361Z,77.99
2019-02-07T17:42:46.125Z,78.91
2019-02-07T17:45:18.183Z,79.16
2019-02-07T17:47:47.074Z,79.11
2019-02-07T17:50:20.546Z,78.66
2019-02-07T17:52:50.396Z,78.83
2019-02-07T17:55:21.251Z,79.12
2019-02-07T17:57:49.621Z,79.41
2019-02-07T18:00:24.469Z,79.66
2019-02-07T18:02:52.979Z,79.38
2019-02-07T18:05:21.390Z,78.91
2019-02-07T18:07:49.814Z,79.40
2019-02-07T18:10:18.382Z,79.55
2019-02-07T18:12:46.860Z,79.21
2019-02-07T18:15:15.248Z,79.31
2019-02-07T18:17:44.074Z,78.89
2019-02-07T18:20:19.736Z,79.80
2019-02-07T18:22:48.206Z,79.19
2019-02-07T18:25:17.335Z,79.59
2019-02-07T18:27:45.817Z,79.71
2019-02-07T18:30:17.958Z,79.35
2019-02-07T18:32:46.815Z,79.35
2019-02-07T18:35:16.895Z,79.23
2019-02-07T18:37:45.506Z,79.14
2019-02-07T18:40:17.755Z,79.61
2019-02-07T18:42:46.147Z,79.32
2019-02-07T18:45:16.026Z,79.36
2019-02-07T18:47:44.719Z,79.39
2019-02-07T18:50:18.158Z,79.79
2019-02-07T18:52:46.526Z,79.77
2019-02-07T18:55:15.108Z,79.29
2019-02-07T18:57:43.524Z,79.07
2019-02-07T19:00:17.028Z,79.20
2019-02-07T19:02:45.380Z,78.30
2019-02-07T19:05:18.170Z,78.91
2019-02-07T19:07:46.667Z,78.87
2019-02-07T19:10:17.219Z,79.41
2019-02-07T19:12:45.848Z,78.57
2019-02-07T19:15:18.595Z,78.08
2019-02-07T19:17:47.572Z,77.78
2019-02-07T19:20:18.120Z,77.25
2019-02-07T19:22:46.812Z,76.69
2019-02-07T19:25:16.708Z,76.86
2019-02-07T19:27:45.204Z,75.98
2019-02-07T19:30:20.524Z,76.28
2019-02-07T19:32:49.101Z,75.85
2019-02-07T19:35:17.513Z,76.31
2019-02-07T19:37:45.927Z,76.78
2019-02-07T19:40:16.821Z,76.95
2019-02-07T19:42:45.356Z,77.20
2019-02-07T19:45:16.916Z,77.91
2019-02-07T19:47:45.539Z,77.91
2019-02-07T19:50:17.841Z,77.91
2019-02-07T19:52:46.606Z,78.36
2019-02-07T19:55:16.359Z,78.12
2019-02-07T19:57:45.230Z,78.43
2019-02-07T20:00:19.743Z,78.22
2019-02-07T20:02:49.040Z,78.78
2019-02-07T20:05:17.701Z,78.54
2019-02-07T20:07:46.976Z,78.72
2019-02-07T20:10:17.447Z,78.57
2019-02-07T20:12:47.186Z,78.66
2019-02-07T20:15:19.855Z,78.11
2019-02-07T20:17:48.205Z,78.30
2019-02-07T20:20:17.142Z,78.75
2019-02-07T20:22:47.927Z,78.80
2019-02-07T20:25:18.350Z,79.47
2019-02-07T20:27:46.856Z,79.26
2019-02-07T20:30:18.698Z,78.86
2019-02-07T20:32:47.184Z,79.32
2019-02-07T20:35:15.890Z,79.95
2019-02-07T20:37:44.267Z,79.67
2019-02-07T20:40:17.138Z,79.31
2019-02-07T20:42:46.580Z,79.27
2019-02-07T20:45:15.494Z,79.55
2019-02-07T20:47:44.312Z,79.43
2019-02-07T20:50:18.089Z,79.49
2019-02-07T20:52:46.827Z,79.52
2019-02-07T20:55:15.679Z,79.64
2019-02-07T20:57:44.029Z,79.73
2019-02-07T21:00:19.164Z,79.22
2019-02-07T21:02:47.743Z,79.91
2019-02-07T21:05:16.878Z,78.92
2019-02-07T21:07:45.396Z,79.16
2019-02-07T21:10:16.740Z,79.13
2019-02-07T21:12:45.152Z,78.90
2019-02-07T21:15:18.801Z,79.07
2019-02-07T21:17:47.240Z,79.64
2019-02-07T21:20:18.122Z,79.72
2019-02-07T21:22:46.609Z,79.56
2019-02-07T21:25:16.421Z,79.67
2019-02-07T21:27:44.839Z,79.35
2019-02-07T21:30:17.621Z,78.88
2019-02-07T21:32:46.534Z,79.15
2019-02-07T21:35:17.652Z,79.71
2019-02-07T21:37:46.232Z,78.93
2019-02-07T21:40:17.894Z,79.27
2019-02-07T21:42:46.426Z,78.91
2019-02-07T21:45:16.759Z,79.03
2019-02-07T21:47:45.244Z,78.60
2019-02-07T21:50:15.890Z,78.62
2019-02-07T21:52:44.260Z,78.81
2019-02-07T21:55:15.332Z,78.56
2019-02-07T21:57:43.923Z,78.65
2019-02-07T22:00:17.178Z,78.69
2019-02-07T22:02:45.759Z,78.53
2019-02-07T22:05:16.016Z,78.51
2019-02-07T22:07:44.490Z,78.23
2019-02-07T22:10:15.863Z,77.42
2019-02-07T22:12:44.710Z,77.12
2019-02-07T22:15:20.072Z,76.59
2019-02-07T22:17:50.042Z,75.96
2019-02-07T22:20:21.695Z,76.27
2019-02-07T22:22:50.271Z,75.85
2019-02-07T22:25:20.834Z,75.36
2019-02-07T22:27:49.178Z,74.88
2019-02-07T22:30:18.901Z,75.27
2019-02-07T22:32:47.584Z,75.19
2019-02-07T22:35:16.549Z,76.19
2019-02-07T22:37:45.047Z,76.44
2019-02-07T22:40:16.477Z,76.49
2019-02-07T22:42:48.053Z,77.21
2019-02-07T22:45:17.983Z,76.89
2019-02-07T22:47:46.941Z,76.84
2019-02-07T22:50:17.065Z,77.17
2019-02-07T22:52:45.484Z,76.85
2019-02-07T22:55:15.076Z,76.70
2019-02-07T22:57:43.499Z,76.01
2019-02-07T23:00:18.386Z,75.30
2019-02-07T23:02:46.808Z,75.23
2019-02-07T23:05:15.157Z,75.19
2019-02-07T23:07:43.573Z,75.28
2019-02-07T23:10:12.780Z,74.88
2019-02-07T23:12:41.170Z,74.24
2019-02-07T23:15:09.918Z,74.53
2019-02-07T23:17:38.708Z,74.21
2019-02-07T23:20:10.115Z,74.79
2019-02-07T23:22:38.412Z,74.87
2019-02-07T23:25:08.758Z,74.78
2019-02-07T23:27:37.202Z,75.19
2019-02-07T23:30:10.735Z,74.90
2019-02-07T23:32:39.154Z,75.20
2019-02-07T23:35:09.264Z,75.36
2019-02-07T23:37:37.561Z,75.29
2019-02-07T23:40:10.925Z,74.97
2019-02-07T23:42:39.317Z,75.44
2019-02-07T23:45:11.223Z,75.47
2019-02-07T23:47:39.574Z,75.31
2019-02-07T23:50:10.340Z,75.69
2019-02-07T23:52:38.703Z,75.78
2019-02-07T23:55:11.686Z,76.16
2019-02-07T23:57:40.114Z,75.71
